Time;durP1;ratioP1;P1;durP2;ratioP2;P2;SDS_P1;SDS_P2;PMS_P1;PMS_P2;Temp;Humidity;BMP_temperature;BMP_pressure;BME280_temperature;BME280_humidity;BME280_pressure;Samples;Min_cycle;Max_cycle;Signal;HPM_P1;HPM_P2
2022/09/24 00:01:06;;;;;;;14.82;10.20;;;14.10;81.20;;;;;;5054478;28;20430;-38
2022/09/24 00:03:31;;;;;;;18.13;10.27;;;14.10;81.80;;;;;;5054304;28;20411;-37
2022/09/24 00:06:01;;;;;;;22.23;10.95;;;14.00;82.00;;;;;;5054143;28;20248;-38
2022/09/24 00:08:26;;;;;;;27.70;11.25;;;14.00;82.50;;;;;;5054105;28;20025;-44
2022/09/24 00:10:55;;;;;;;14.88;10.32;;;14.00;82.90;;;;;;5061985;28;20081;-38
2022/09/24 00:13:22;;;;;;;15.07;10.77;;;14.10;82.80;;;;;;5059317;28;20025;-38
2022/09/24 00:15:49;;;;;;;16.42;12.10;;;14.10;82.80;;;;;;5053914;28;20528;-38
2022/09/24 00:18:16;;;;;;;25.55;13.93;;;14.20;82.70;;;;;;5053874;28;20432;-40
2022/09/24 00:20:43;;;;;;;21.17;14.20;;;14.30;83.00;;;;;;5053967;28;20108;-38
2022/09/24 00:23:10;;;;;;;21.95;13.70;;;14.20;83.30;;;;;;5053817;28;20419;-38
2022/09/24 00:28:28;;;;;;;24.60;12.55;;;14.30;83.60;;;;;;5054099;28;20090;-38
2022/09/24 00:30:57;;;;;;;24.73;12.88;;;14.20;83.80;;;;;;5053818;28;20054;-39
2022/09/24 00:33:31;;;;;;;19.38;13.90;;;14.30;83.80;;;;;;5053902;28;20052;-37
2022/09/24 00:36:03;;;;;;;22.40;15.00;;;14.30;83.80;;;;;;5053779;28;20025;-38
2022/09/24 00:38:32;;;;;;;33.25;17.13;;;14.30;84.20;;;;;;5053270;28;20056;-38
2022/09/24 00:40:59;;;;;;;25.73;15.50;;;14.40;84.10;;;;;;5053798;28;20056;-39
2022/09/24 00:43:35;;;;;;;26.58;16.45;;;14.30;84.80;;;;;;5053481;28;20044;-37
2022/09/24 00:46:00;;;;;;;28.40;17.85;;;14.30;85.10;;;;;;5053366;28;20024;-38
2022/09/24 00:48:26;;;;;;;26.10;17.38;;;14.30;85.50;;;;;;5053116;28;20025;-38
2022/09/24 00:50:52;;;;;;;26.85;15.45;;;14.20;85.80;;;;;;5054224;28;20029;-38
2022/09/24 00:53:21;;;;;;;28.83;18.30;;;14.10;86.30;;;;;;5053667;28;20028;-38
2022/09/24 00:55:53;;;;;;;23.92;17.20;;;14.00;87.00;;;;;;5053651;28;20083;-38
2022/09/24 00:58:21;;;;;;;26.55;18.52;;;14.00;87.20;;;;;;5053501;28;20031;-38
2022/09/24 01:00:48;;;;;;;26.13;19.77;;;13.90;87.50;;;;;;5053255;28;20027;-38
2022/09/24 01:03:19;;;;;;;26.83;17.33;;;13.90;87.50;;;;;;5053104;28;20024;-38
2022/09/24 01:05:45;;;;;;;29.88;20.33;;;13.90;87.50;;;;;;5053276;28;20029;-38
2022/09/24 01:08:15;;;;;;;28.98;19.13;;;13.90;88.00;;;;;;5053060;28;20540;-38
2022/09/24 01:11:02;;;;;;;30.50;20.15;;;13.80;87.70;;;;;;5052799;28;20033;-37
2022/09/24 01:13:54;;;;;;;29.75;19.58;;;13.80;88.00;;;;;;5053210;28;20043;-39
2022/09/24 01:16:28;;;;;;;30.33;19.30;;;13.80;88.00;;;;;;5052997;28;20082;-38
2022/09/24 01:19:08;;;;;;;33.80;20.15;;;13.80;88.30;;;;;;5052983;28;20036;-38
2022/09/24 01:21:48;;;;;;;30.42;20.50;;;13.80;88.50;;;;;;5053010;28;20013;-38
2022/09/24 01:24:18;;;;;;;43.20;20.67;;;13.70;88.60;;;;;;5053066;28;20024;-38
2022/09/24 01:26:50;;;;;;;;;;;13.80;88.50;;;;;;5053146;28;20048;-39
2022/09/24 01:29:32;;;;;;;28.92;19.10;;;13.70;88.70;;;;;;5052982;28;19904;-38
2022/09/24 01:32:36;;;;;;;31.90;19.73;;;13.70;88.80;;;;;;5052551;28;20098;-38
2022/09/24 01:35:14;;;;;;;29.52;19.90;;;13.70;89.10;;;;;;5052705;28;20100;-38
2022/09/24 01:37:46;;;;;;;31.00;20.95;;;13.70;89.00;;;;;;5051594;28;20466;-39
2022/09/24 01:40:13;;;;;;;32.35;20.35;;;13.70;89.20;;;;;;5052620;28;20032;-38
2022/09/24 01:42:43;;;;;;;33.03;20.80;;;13.60;89.10;;;;;;5052820;28;20045;-39
2022/09/24 01:45:10;;;;;;;34.37;21.40;;;13.50;89.50;;;;;;5052582;28;20024;-38
2022/09/24 01:47:38;;;;;;;31.45;21.25;;;13.50;89.80;;;;;;5052658;28;20029;-38
2022/09/24 01:50:10;;;;;;;30.70;21.63;;;13.40;89.80;;;;;;5052845;28;20465;-39
2022/09/24 01:52:59;;;;;;;31.75;21.48;;;13.50;89.90;;;;;;5052542;28;20055;-38
2022/09/24 01:55:27;;;;;;;36.55;21.80;;;13.50;89.80;;;;;;5052027;28;20128;-38
2022/09/24 01:58:02;;;;;;;34.15;23.95;;;13.50;90.00;;;;;;5052756;28;20044;-38
2022/09/24 02:00:28;;;;;;;41.97;22.35;;;13.50;90.00;;;;;;5056380;28;20477;-39
2022/09/24 02:02:59;;;;;;;38.88;24.38;;;13.50;90.00;;;;;;5055273;28;20032;-39
2022/09/24 02:05:30;;;;;;;37.05;23.65;;;13.50;90.20;;;;;;5056745;28;20098;-39
2022/09/24 02:08:32;;;;;;;37.63;24.20;;;13.50;90.30;;;;;;5057043;28;20067;-40
2022/09/24 02:11:10;;;;;;;34.58;21.83;;;13.50;90.30;;;;;;5056210;28;20037;-39
2022/09/24 02:13:46;;;;;;;35.15;22.48;;;13.50;90.10;;;;;;5056936;28;20025;-39
2022/09/24 02:16:15;;;;;;;32.60;21.15;;;13.40;90.20;;;;;;5056745;28;20555;-39
2022/09/24 02:18:45;;;;;;;34.83;23.27;;;13.40;90.20;;;;;;5056536;28;20543;-39
2022/09/24 02:21:15;;;;;;;39.25;23.50;;;13.40;90.30;;;;;;5056482;28;20025;-39
2022/09/24 02:23:46;;;;;;;37.42;23.60;;;13.60;90.60;;;;;;5056702;28;20499;-39
2022/09/24 02:26:12;;;;;;;31.33;22.55;;;13.60;90.40;;;;;;5056310;28;20033;-39
2022/09/24 02:28:39;;;;;;;31.17;21.20;;;13.50;90.30;;;;;;5056990;28;20444;-39
2022/09/24 02:31:34;;;;;;;33.20;22.25;;;13.50;90.30;;;;;;5056646;28;20037;-39
2022/09/24 02:34:19;;;;;;;34.60;22.50;;;13.50;90.50;;;;;;5056653;28;20103;-39
2022/09/24 02:36:49;;;;;;;34.20;21.77;;;13.40;90.60;;;;;;5056401;28;20480;-38
2022/09/24 02:39:16;;;;;;;31.90;21.30;;;13.40;90.70;;;;;;5054747;28;20385;-37
2022/09/24 02:41:46;;;;;;;30.65;20.27;;;13.30;90.70;;;;;;5056409;28;20025;-37
2022/09/24 02:44:13;;;;;;;29.50;20.45;;;13.30;90.70;;;;;;5056346;28;20055;-38
2022/09/24 02:46:40;;;;;;;31.58;20.48;;;13.30;90.80;;;;;;5055973;28;20116;-38
2022/09/24 02:49:06;;;;;;;34.20;22.17;;;13.30;90.90;;;;;;5056034;28;20380;-38
2022/09/24 02:51:32;;;;;;;32.95;23.15;;;13.30;91.00;;;;;;5055753;28;20021;-41
2022/09/24 02:53:58;;;;;;;34.65;22.98;;;13.30;91.20;;;;;;5055944;28;20091;-37
2022/09/24 02:56:24;;;;;;;36.95;24.85;;;13.30;91.20;;;;;;5056084;28;20088;-38
2022/09/24 02:58:50;;;;;;;36.95;22.95;;;13.30;91.10;;;;;;5055739;28;20021;-38
2022/09/24 03:01:15;;;;;;;35.28;21.52;;;13.30;91.30;;;;;;5055996;28;20362;-38
2022/09/24 03:03:41;;;;;;;34.90;22.13;;;13.30;91.30;;;;;;5056466;28;20048;-38
2022/09/24 03:06:07;;;;;;;38.25;22.48;;;13.30;91.30;;;;;;5054931;28;20025;-38
2022/09/24 03:08:34;;;;;;;38.22;23.48;;;13.30;91.40;;;;;;5056060;28;20107;-39
2022/09/24 03:10:59;;;;;;;34.13;21.60;;;13.30;91.40;;;;;;5055170;28;20032;-39
2022/09/24 03:13:25;;;;;;;33.28;21.75;;;13.20;91.40;;;;;;5055652;28;20029;-38
2022/09/24 03:15:51;;;;;;;38.25;22.38;;;13.20;91.40;;;;;;5055972;28;20029;-38
2022/09/24 03:18:16;;;;;;;34.22;23.88;;;13.10;91.50;;;;;;5055912;28;20461;-38
2022/09/24 03:20:42;;;;;;;36.45;23.95;;;13.10;91.60;;;;;;5054257;28;20473;-39
2022/09/24 03:23:08;;;;;;;36.47;23.13;;;13.10;91.60;;;;;;5055665;28;20032;-39
2022/09/24 03:25:33;;;;;;;34.08;22.88;;;13.10;91.70;;;;;;5055363;28;20400;-38
2022/09/24 03:27:59;;;;;;;40.28;24.33;;;13.10;91.80;;;;;;5055161;28;20131;-38
2022/09/24 03:33:09;;;;;;;38.00;23.50;;;13.00;91.80;;;;;;5055496;28;20036;-39
2022/09/24 03:35:34;;;;;;;37.33;23.17;;;13.00;91.90;;;;;;5054985;28;20373;-40
2022/09/24 03:38:00;;;;;;;38.55;24.70;;;13.00;92.00;;;;;;5054681;28;20493;-38
2022/09/24 03:40:26;;;;;;;39.13;23.90;;;13.10;92.10;;;;;;5054688;28;20032;-38
2022/09/24 03:42:51;;;;;;;40.92;24.52;;;13.00;92.10;;;;;;5054669;28;20017;-39
2022/09/24 03:45:17;;;;;;;39.35;22.58;;;13.10;92.00;;;;;;5053348;28;20020;-38
2022/09/24 03:47:43;;;;;;;39.03;23.23;;;13.00;92.00;;;;;;5054497;28;20029;-38
2022/09/24 03:50:11;;;;;;;38.05;23.75;;;13.00;92.10;;;;;;5054867;28;20090;-38
2022/09/24 03:52:40;;;;;;;42.75;25.77;;;13.10;92.10;;;;;;5054803;28;20021;-39
2022/09/24 03:55:06;;;;;;;36.17;23.08;;;13.10;92.10;;;;;;5054433;28;20036;-38
2022/09/24 03:57:32;;;;;;;38.03;24.23;;;13.10;92.10;;;;;;5054347;28;20068;-38
2022/09/24 03:59:58;;;;;;;38.35;24.38;;;13.10;92.10;;;;;;5053157;28;20068;-38
2022/09/24 04:02:24;;;;;;;37.78;23.58;;;13.10;92.10;;;;;;5054321;28;20025;-37
2022/09/24 04:04:51;;;;;;;39.50;24.42;;;13.10;92.10;;;;;;5054241;28;20075;-38
2022/09/24 04:07:16;;;;;;;36.88;24.25;;;13.10;92.10;;;;;;5054400;28;20025;-39
2022/09/24 04:09:42;;;;;;;38.58;24.73;;;13.10;92.10;;;;;;5054188;28;20044;-38
2022/09/24 04:12:08;;;;;;;35.08;24.08;;;13.10;92.10;;;;;;5054037;28;20029;-38
2022/09/24 04:14:33;;;;;;;36.05;24.65;;;13.20;92.10;;;;;;5053644;28;20108;-38
2022/09/24 04:16:59;;;;;;;42.45;24.23;;;13.20;92.10;;;;;;5053794;28;20079;-38
2022/09/24 04:19:25;;;;;;;36.13;23.60;;;13.20;92.10;;;;;;5054559;28;20350;-38
2022/09/24 04:21:51;;;;;;;37.30;25.23;;;13.10;92.10;;;;;;5053375;28;20021;-38
2022/09/24 04:24:17;;;;;;;39.50;24.52;;;13.10;92.10;;;;;;5053843;28;20487;-38
2022/09/24 04:26:42;;;;;;;43.50;23.63;;;13.10;92.10;;;;;;5053810;28;20052;-38
2022/09/24 04:29:08;;;;;;;37.50;24.50;;;13.10;92.10;;;;;;5054162;28;20372;-38
2022/09/24 04:31:34;;;;;;;40.25;23.75;;;13.10;92.10;;;;;;5053931;28;20040;-39
2022/09/24 04:34:00;;;;;;;34.30;22.70;;;13.10;92.10;;;;;;5053851;28;20021;-38
2022/09/24 04:36:26;;;;;;;36.50;24.10;;;13.10;92.20;;;;;;5053416;28;20086;-38
2022/09/24 04:38:52;;;;;;;41.47;24.65;;;13.00;92.20;;;;;;5053550;28;20465;-38
2022/09/24 04:41:17;;;;;;;41.97;24.95;;;13.00;92.20;;;;;;5053479;28;20618;-38
2022/09/24 04:43:45;;;;;;;35.65;22.33;;;13.00;92.20;;;;;;5053467;28;20139;-38
2022/09/24 04:46:11;;;;;;;44.08;25.13;;;13.00;92.30;;;;;;5053750;28;20333;-38
2022/09/24 04:48:38;;;;;;;40.85;23.88;;;13.00;92.40;;;;;;5053432;28;20032;-37
2022/09/24 04:51:07;;;;;;;38.13;26.90;;;13.10;92.40;;;;;;5053433;28;20040;-38
2022/09/24 04:53:36;;;;;;;37.45;23.95;;;13.10;92.40;;;;;;5053445;28;20358;-38
2022/09/24 04:56:02;;;;;;;38.30;24.45;;;13.00;92.40;;;;;;5053486;28;20109;-38
2022/09/24 04:58:28;;;;;;;36.35;24.33;;;13.00;92.30;;;;;;5053100;28;20056;-38
2022/09/24 05:00:54;;;;;;;36.38;23.88;;;12.90;92.30;;;;;;5053514;28;20022;-38
2022/09/24 05:03:22;;;;;;;41.03;24.00;;;13.00;92.40;;;;;;5053391;28;20044;-38
2022/09/24 05:05:50;;;;;;;35.70;23.35;;;12.90;92.40;;;;;;5053070;28;20017;-39
2022/09/24 05:08:16;;;;;;;48.20;26.67;;;13.00;92.40;;;;;;5053103;28;20033;-38
2022/09/24 17:33:30;;;;;;;18.52;11.13;;;14.90;80.80;;;;;;5150748;27;20573;-38
2022/09/24 17:35:59;;;;;;;18.17;12.00;;;15.00;80.80;;;;;;5131089;27;20059;-39
2022/09/24 17:38:25;;;;;;;19.73;11.32;;;15.00;80.70;;;;;;5130064;28;20039;-39
2022/09/24 17:40:54;;;;;;;15.80;10.85;;;15.10;80.50;;;;;;5113311;28;20024;-38
2022/09/24 17:43:20;;;;;;;17.23;10.52;;;15.10;80.50;;;;;;5110211;28;20476;-38
2022/09/24 17:45:59;;;;;;;17.52;11.85;;;15.10;80.40;;;;;;5110253;28;20034;-38
2022/09/24 17:48:28;;;;;;;16.25;10.68;;;15.10;80.40;;;;;;5110298;28;20103;-37
2022/09/24 17:50:59;;;;;;;16.85;12.27;;;15.00;80.30;;;;;;5109097;28;20024;-38
2022/09/24 17:53:28;;;;;;;18.92;11.35;;;15.00;80.60;;;;;;5110719;28;20027;-38
2022/09/24 17:55:54;;;;;;;15.38;11.57;;;15.00;80.50;;;;;;5109290;28;20078;-38
2022/09/24 17:58:20;;;;;;;16.88;11.52;;;15.00;80.20;;;;;;5110082;28;20028;-38
2022/09/24 18:00:47;;;;;;;20.38;11.68;;;15.00;80.40;;;;;;5110088;28;20158;-37
2022/09/24 18:03:13;;;;;;;31.98;11.77;;;15.00;80.50;;;;;;5108634;28;20024;-38
2022/09/24 18:05:39;;;;;;;19.17;11.80;;;14.90;80.70;;;;;;5110230;28;20443;-37
2022/09/24 18:08:05;;;;;;;16.30;11.15;;;15.00;80.90;;;;;;5110170;28;20039;-38
2022/09/24 18:10:31;;;;;;;17.05;11.35;;;14.90;80.70;;;;;;5110001;28;20360;-37
2022/09/24 18:12:58;;;;;;;16.42;10.63;;;14.90;80.80;;;;;;5109980;28;20032;-38
2022/09/24 18:15:24;;;;;;;18.70;11.63;;;14.90;80.90;;;;;;5110183;28;20406;-39
2022/09/24 18:17:51;;;;;;;12.90;10.10;;;14.90;80.80;;;;;;5108410;28;20476;-38
2022/09/24 18:20:17;;;;;;;20.48;11.75;;;14.90;80.80;;;;;;5109538;28;20028;-38
2022/09/24 18:22:43;;;;;;;13.63;10.63;;;14.80;81.00;;;;;;5109694;28;20104;-37
2022/09/24 18:25:09;;;;;;;14.80;10.10;;;14.80;81.10;;;;;;5109675;28;20060;-37
2022/09/24 18:27:42;;;;;;;14.35;9.32;;;14.80;80.90;;;;;;5109540;28;20028;-40
2022/09/24 18:30:10;;;;;;;14.98;10.07;;;14.80;80.80;;;;;;5109960;28;20486;-38
2022/09/24 18:32:38;;;;;;;16.50;10.18;;;14.70;80.90;;;;;;5109107;28;20070;-38
2022/09/24 18:35:08;;;;;;;16.05;9.70;;;14.70;81.00;;;;;;5109131;28;20034;-38
2022/09/24 18:37:37;;;;;;;16.40;9.57;;;14.70;80.90;;;;;;5107787;28;20418;-38
2022/09/24 18:40:06;;;;;;;14.40;9.43;;;14.70;81.00;;;;;;5109143;28;20031;-38
2022/09/24 18:42:35;;;;;;;18.20;10.45;;;14.70;81.30;;;;;;5108881;28;20027;-39
2022/09/24 18:45:03;;;;;;;15.00;10.25;;;14.60;81.20;;;;;;5095401;28;20139;-38
2022/09/24 18:47:29;;;;;;;15.75;9.45;;;14.70;81.20;;;;;;5093938;28;20028;-39
2022/09/24 18:49:55;;;;;;;15.48;10.32;;;14.60;81.30;;;;;;5094021;28;20377;-38
2022/09/24 18:52:21;;;;;;;16.55;11.27;;;14.60;81.50;;;;;;5095424;28;20059;-39
2022/09/24 18:54:47;;;;;;;15.43;9.90;;;14.60;81.50;;;;;;5095474;28;20043;-39
2022/09/24 18:57:13;;;;;;;15.48;9.65;;;14.60;81.30;;;;;;5095870;28;20379;-38
2022/09/24 18:59:43;;;;;;;13.52;9.07;;;14.50;81.40;;;;;;5095442;28;20099;-38
2022/09/24 19:02:13;;;;;;;18.00;11.32;;;14.50;81.40;;;;;;5095356;28;20028;-38
2022/09/24 19:04:40;;;;;;;19.13;10.13;;;14.60;81.50;;;;;;5095302;28;20028;-38
2022/09/24 19:07:07;;;;;;;15.80;9.73;;;14.50;81.70;;;;;;5095191;28;20024;-39
2022/09/24 19:09:34;;;;;;;19.42;12.70;;;14.50;81.60;;;;;;5095112;28;20017;-39
2022/09/24 19:12:00;;;;;;;15.02;9.75;;;14.50;81.90;;;;;;5095031;28;20032;-38
2022/09/24 19:14:26;;;;;;;19.63;11.50;;;14.50;81.90;;;;;;5094927;28;20017;-39
2022/09/24 19:16:55;;;;;;;16.77;10.90;;;14.40;81.90;;;;;;5093711;28;20020;-38
2022/09/24 19:19:23;;;;;;;19.05;9.90;;;14.50;81.80;;;;;;5095404;28;20024;-39
2022/09/24 19:21:50;;;;;;;16.40;10.70;;;14.40;82.00;;;;;;5095019;28;20032;-39
2022/09/24 19:24:17;;;;;;;13.25;9.35;;;14.50;82.20;;;;;;5095255;28;20035;-39
2022/09/24 19:26:43;;;;;;;16.88;10.25;;;14.40;82.10;;;;;;5095374;28;20510;-39
2022/09/24 19:29:09;;;;;;;15.43;10.00;;;14.40;82.30;;;;;;5094873;28;20054;-39
2022/09/24 19:31:40;;;;;;;17.15;10.82;;;14.40;82.50;;;;;;5095014;28;20072;-39
2022/09/24 19:34:09;;;;;;;20.70;12.55;;;14.40;82.40;;;;;;5095925;28;20424;-38
2022/09/24 19:36:42;;;;;;;21.40;12.23;;;14.30;82.50;;;;;;5095478;28;20028;-48
2022/09/24 19:39:09;;;;;;;18.05;11.98;;;14.40;82.70;;;;;;5093812;28;20095;-47
2022/09/24 19:41:35;;;;;;;16.65;10.15;;;14.30;82.80;;;;;;5094963;28;20487;-46
2022/09/24 19:44:01;;;;;;;17.50;11.52;;;14.30;82.70;;;;;;5093287;28;20028;-48
2022/09/24 19:46:27;;;;;;;16.15;10.80;;;14.30;82.90;;;;;;5094934;28;20081;-51
2022/09/24 19:48:55;;;;;;;17.10;11.70;;;14.30;83.10;;;;;;5094830;28;20024;-48
2022/09/24 19:51:23;;;;;;;14.68;11.43;;;14.30;83.30;;;;;;5094431;28;20102;-48
2022/09/24 19:53:52;;;;;;;24.92;12.38;;;14.20;83.50;;;;;;5094600;28;20024;-47
2022/09/24 19:56:21;;;;;;;18.00;11.52;;;14.30;83.70;;;;;;5093880;28;20021;-49
2022/09/24 19:58:51;;;;;;;22.63;11.85;;;14.30;83.40;;;;;;5094555;28;20028;-48
2022/09/24 20:01:18;;;;;;;20.10;11.65;;;14.30;83.60;;;;;;5094862;28;20027;-49
2022/09/24 20:03:44;;;;;;;20.10;12.35;;;14.20;83.60;;;;;;5094679;28;20024;-47
2022/09/24 20:06:13;;;;;;;23.20;12.40;;;14.20;83.70;;;;;;5095365;28;20115;-46
2022/09/24 20:08:39;;;;;;;18.77;12.80;;;14.20;83.80;;;;;;5093081;28;20024;-49
2022/09/24 20:11:08;;;;;;;17.20;11.95;;;14.20;83.90;;;;;;5094149;28;20024;-48
2022/09/24 20:13:34;;;;;;;20.05;13.02;;;14.20;84.00;;;;;;5092766;28;20016;-47
2022/09/24 20:16:02;;;;;;;17.63;11.05;;;14.20;84.10;;;;;;5094015;28;20039;-47
2022/09/24 20:18:28;;;;;;;21.98;15.57;;;14.20;84.10;;;;;;5093861;28;20039;-47
2022/09/24 20:20:54;;;;;;;20.83;12.50;;;14.20;84.10;;;;;;5092918;28;20380;-48
2022/09/24 20:23:23;;;;;;;21.80;13.40;;;14.20;84.30;;;;;;5093891;28;20027;-49
2022/09/24 20:28:37;;;;;;;19.02;12.65;;;14.20;84.50;;;;;;5093941;28;20039;-48
2022/09/24 20:31:11;;;;;;;20.13;13.18;;;14.20;84.50;;;;;;5093395;28;20043;-48
2022/09/24 20:33:39;;;;;;;19.73;12.75;;;14.30;84.40;;;;;;5093678;28;20532;-48
2022/09/24 20:36:05;;;;;;;22.83;14.88;;;14.20;84.50;;;;;;5093876;28;20099;-48
2022/09/24 20:38:31;;;;;;;21.38;12.73;;;14.20;84.70;;;;;;5092249;28;20024;-50
2022/09/24 20:40:56;;;;;;;17.15;12.50;;;14.20;84.90;;;;;;5093492;28;20026;-48
2022/09/24 20:43:23;;;;;;;19.95;13.00;;;14.20;85.10;;;;;;5093632;28;20031;-48
2022/09/24 20:45:49;;;;;;;18.15;12.98;;;14.20;85.50;;;;;;5093414;28;20047;-47
2022/09/24 20:48:15;;;;;;;17.10;12.32;;;14.20;85.80;;;;;;5093427;28;20103;-47
2022/09/24 20:50:41;;;;;;;21.48;12.88;;;14.20;85.90;;;;;;5093555;28;20032;-47
2022/09/24 20:53:07;;;;;;;18.48;13.73;;;14.20;85.90;;;;;;5093145;28;20035;-47
2022/09/24 20:55:32;;;;;;;14.23;10.60;;;14.20;86.10;;;;;;5093169;28;20073;-48
2022/09/24 20:57:58;;;;;;;20.80;12.50;;;14.20;86.20;;;;;;5091632;28;20447;-48
2022/09/24 21:00:30;;;;;;;16.83;11.57;;;14.20;86.30;;;;;;5093055;28;20383;-48
2022/09/24 21:02:56;;;;;;;21.45;12.85;;;14.10;86.40;;;;;;5092968;28;20051;-48
2022/09/24 21:05:23;;;;;;;19.30;11.95;;;14.10;86.70;;;;;;5093015;28;20020;-48
2022/09/24 21:07:49;;;;;;;22.38;12.50;;;14.10;86.70;;;;;;5091870;28;20020;-48
2022/09/24 21:10:15;;;;;;;15.10;11.27;;;14.00;86.80;;;;;;5093769;28;20039;-48
2022/09/24 21:12:41;;;;;;;16.70;11.40;;;14.00;86.90;;;;;;5093168;28;20384;-49
2022/09/24 21:15:08;;;;;;;16.40;11.80;;;14.00;86.80;;;;;;5091910;28;20020;-48
2022/09/24 21:17:34;;;;;;;17.90;12.60;;;14.00;86.80;;;;;;5093423;28;20080;-48
2022/09/24 21:20:01;;;;;;;18.45;11.27;;;13.90;86.90;;;;;;5092015;28;20479;-47
2022/09/24 21:22:29;;;;;;;18.38;11.63;;;13.90;86.90;;;;;;5093520;28;20028;-48
2022/09/24 21:24:55;;;;;;;18.02;12.57;;;13.80;87.20;;;;;;5093354;28;20020;-47
2022/09/24 21:27:21;;;;;;;16.60;12.50;;;13.80;87.30;;;;;;5093337;28;20042;-46
2022/09/24 21:29:47;;;;;;;17.48;10.32;;;13.90;87.30;;;;;;5091866;28;20028;-48
2022/09/24 21:32:16;;;;;;;21.92;14.05;;;13.90;87.30;;;;;;5092657;28;20044;-45
2022/09/24 21:34:43;;;;;;;18.55;12.30;;;13.90;87.10;;;;;;5093695;28;20448;-47
2022/09/24 21:37:12;;;;;;;16.63;10.88;;;13.90;87.10;;;;;;5092968;28;20034;-39
2022/09/24 21:39:38;;;;;;;17.92;11.25;;;13.80;87.30;;;;;;5092978;28;20021;-38
2022/09/24 21:42:04;;;;;;;23.05;12.05;;;13.90;87.20;;;;;;5093035;28;20380;-38
2022/09/24 21:44:32;;;;;;;15.77;11.65;;;13.80;87.10;;;;;;5092586;28;20024;-38
2022/09/24 21:46:59;;;;;;;22.65;11.77;;;13.80;87.30;;;;;;5092791;28;20017;-38
2022/09/24 21:49:24;;;;;;;19.30;11.60;;;13.90;87.20;;;;;;5092908;28;20424;-38
2022/09/24 21:51:52;;;;;;;17.40;11.57;;;13.80;87.20;;;;;;5092348;28;20063;-38
2022/09/24 21:54:18;;;;;;;16.63;11.57;;;13.80;86.90;;;;;;5092538;28;20024;-38
2022/09/24 21:56:45;;;;;;;15.55;10.55;;;13.80;87.00;;;;;;5092411;28;20063;-38
2022/09/24 22:01:55;;;;;;;19.15;10.40;;;13.80;86.80;;;;;;5092906;28;20035;-38
2022/09/24 22:04:21;;;;;;;14.48;9.63;;;13.80;86.90;;;;;;5091768;28;20032;-38
2022/09/24 22:06:47;;;;;;;16.33;10.02;;;13.80;86.80;;;;;;5092392;28;20074;-38
2022/09/24 22:09:14;;;;;;;17.33;11.13;;;13.80;86.80;;;;;;5092455;28;20030;-38
2022/09/24 22:11:40;;;;;;;13.35;8.02;;;13.80;86.50;;;;;;5092396;28;20024;-40
2022/09/24 22:14:06;;;;;;;19.25;10.35;;;13.80;86.40;;;;;;5092193;28;20103;-38
2022/09/24 22:16:34;;;;;;;15.45;9.23;;;13.80;86.30;;;;;;5092671;28;20024;-38
2022/09/24 22:19:02;;;;;;;12.10;9.70;;;13.80;86.50;;;;;;5093896;28;20020;-38
2022/09/24 22:21:28;;;;;;;20.38;10.38;;;13.80;86.40;;;;;;5096652;28;20034;-37
2022/09/24 22:23:54;;;;;;;15.32;10.52;;;13.80;86.40;;;;;;5096062;28;20021;-38
2022/09/24 22:26:20;;;;;;;14.73;9.18;;;13.80;86.30;;;;;;5095868;28;20028;-38
2022/09/24 22:28:46;;;;;;;21.45;9.75;;;13.80;86.50;;;;;;5094551;28;20031;-38
2022/09/24 22:31:15;;;;;;;19.23;10.15;;;13.80;86.20;;;;;;5095721;28;20100;-37
2022/09/24 22:36:30;;;;;;;22.60;10.23;;;13.80;86.00;;;;;;5095944;28;20070;-38
2022/09/24 22:38:58;;;;;;;19.67;12.70;;;13.80;86.00;;;;;;5095619;28;20055;-38
2022/09/24 22:41:25;;;;;;;18.02;10.75;;;13.80;86.30;;;;;;5094314;28;20392;-38
2022/09/24 22:43:51;;;;;;;15.60;10.88;;;13.70;86.70;;;;;;5095713;28;20020;-39
2022/09/24 22:46:18;;;;;;;17.05;11.07;;;13.80;86.90;;;;;;5095663;28;20032;-39
2022/09/24 22:48:46;;;;;;;30.60;12.13;;;13.70;87.00;;;;;;5094329;28;20055;-39
2022/09/24 22:51:12;;;;;;;19.88;11.23;;;13.70;87.00;;;;;;5096239;28;20044;-39
2022/09/24 22:53:39;;;;;;;20.50;10.57;;;13.70;87.20;;;;;;5095962;28;20039;-40
2022/09/24 22:56:11;;;;;;;19.58;10.82;;;13.70;87.50;;;;;;5095762;28;20016;-40
2022/09/24 22:58:38;;;;;;;17.33;9.93;;;13.60;87.70;;;;;;5095742;28;20427;-39
2022/09/24 23:01:20;;;;;;;19.00;12.23;;;13.60;87.90;;;;;;5095280;28;20028;-39
2022/09/24 23:03:46;;;;;;;18.13;9.95;;;13.50;88.10;;;;;;5095336;28;20028;-39
2022/09/24 23:06:12;;;;;;;24.10;10.07;;;13.50;88.20;;;;;;5095246;28;20044;-39
2022/09/24 23:08:39;;;;;;;20.35;11.60;;;13.50;88.40;;;;;;5095597;28;20036;-39
2022/09/24 23:11:07;;;;;;;18.95;9.32;;;13.40;88.50;;;;;;5094048;28;20456;-39
2022/09/24 23:13:33;;;;;;;16.67;9.63;;;13.40;88.60;;;;;;5095286;28;20387;-39
2022/09/24 23:16:20;;;;;;;17.98;8.50;;;13.40;88.80;;;;;;5095365;28;20573;-39
2022/09/24 23:18:49;;;;;;;11.85;8.02;;;13.30;89.00;;;;;;5095324;28;20022;-39
2022/09/24 23:21:17;;;;;;;21.52;10.93;;;13.30;89.10;;;;;;5095129;28;20131;-39
2022/09/24 23:23:43;;;;;;;13.00;7.15;;;13.20;89.30;;;;;;5096545;28;20028;-39
2022/09/24 23:26:14;;;;;;;15.85;7.20;;;13.20;89.30;;;;;;5095774;28;20441;-39
2022/09/24 23:28:40;;;;;;;17.85;7.93;;;13.30;89.30;;;;;;5095000;28;20020;-38
2022/09/24 23:31:11;;;;;;;10.55;6.43;;;13.30;89.10;;;;;;5095086;28;20028;-39
2022/09/24 23:33:39;;;;;;;11.50;7.40;;;13.20;88.80;;;;;;5094605;28;20097;-39
2022/09/24 23:36:06;;;;;;;14.52;6.93;;;13.30;88.80;;;;;;5095019;28;20035;-39
2022/09/24 23:38:32;;;;;;;8.95;5.63;;;13.30;88.50;;;;;;5094637;28;20028;-38
2022/09/24 23:40:59;;;;;;;10.25;5.53;;;13.30;88.30;;;;;;5094800;28;20320;-39
2022/09/24 23:43:26;;;;;;;8.85;5.38;;;13.30;88.00;;;;;;5094804;28;20380;-47
2022/09/24 23:45:52;;;;;;;7.07;4.25;;;13.30;87.90;;;;;;5095279;28;20106;-38
2022/09/24 23:48:18;;;;;;;8.85;4.43;;;13.30;87.50;;;;;;5094721;28;20380;-38
2022/09/24 23:50:44;;;;;;;12.52;4.53;;;13.30;87.20;;;;;;5094814;28;20486;-39
2022/09/24 23:53:11;;;;;;;8.32;3.83;;;13.30;87.20;;;;;;5094811;28;20024;-38
2022/09/24 23:55:37;;;;;;;15.23;4.07;;;13.30;87.00;;;;;;5093252;28;20078;-39
2022/09/24 23:58:03;;;;;;;5.90;3.25;;;13.30;86.90;;;;;;5094766;28;20032;-39
